Miramar Beach, Florida
Current Conditions -  °F | °C
As of 4:53 PM on Friday 28 Nov 2014 (Local Time) from KDTS Reporting Station
Clear Clear  
Wind Chill: 52°   Ceiling: Unl
Heat Index: 52°   Visibility: 10mi
Dew Point: 37°   Wind: 0mph
Humidity: 57%   Direction: NA
Pressure: 30.3"   Gusts: NA
Location:  30.3738°N, 86.3602°W
Report Text: KDTS 282253Z AUTO 00000KT 10SM CLR 11/03 A3030 RMK AO2 SLP261 T01110028 TSNO
Loading
Personal Weather Stations






























Interactive Weather Map New forecast layout! Learn more

10-Day Weather Forecast

Advertisements
Track Severe Weather on mobile